createdAt,value
2023-01-29T00:01:43.533Z,32.00
2023-01-29T00:04:29.978Z,29.10
2023-01-29T00:07:16.600Z,30.85
2023-01-29T00:10:03.093Z,26.20
2023-01-29T00:12:49.450Z,26.48
2023-01-29T00:15:37.432Z,28.00
2023-01-29T00:18:24.572Z,29.40
2023-01-29T00:21:11.948Z,29.83
2023-01-29T00:23:59.141Z,28.33
2023-01-29T00:26:45.732Z,30.67
2023-01-29T00:29:32.099Z,33.80
2023-01-29T00:32:20.014Z,29.25
2023-01-29T00:35:07.423Z,28.17
2023-01-29T00:37:55.688Z,26.08
2023-01-29T00:41:00.850Z,30.45
2023-01-29T00:44:05.186Z,28.95
2023-01-29T00:46:52.037Z,28.15
2023-01-29T00:49:40.304Z,26.23
2023-01-29T00:52:26.669Z,30.35
2023-01-29T00:55:13.383Z,29.13
2023-01-29T00:57:59.838Z,28.55
2023-01-29T01:00:46.340Z,27.25
2023-01-29T01:03:35.120Z,30.48
2023-01-29T01:06:23.026Z,31.83
2023-01-29T01:09:29.015Z,27.77
2023-01-29T01:12:15.441Z,28.27
2023-01-29T01:15:01.958Z,27.92
2023-01-29T01:17:49.575Z,34.33
2023-01-29T01:20:37.152Z,27.13
2023-01-29T01:23:25.060Z,29.23
2023-01-29T01:26:11.896Z,26.25
2023-01-29T01:28:58.431Z,27.95
2023-01-29T01:31:45.656Z,27.00
2023-01-29T01:34:32.486Z,27.05
2023-01-29T01:37:19.046Z,31.10
2023-01-29T01:40:12.851Z,28.70
2023-01-29T01:43:00.778Z,29.17
2023-01-29T01:45:48.388Z,30.08
2023-01-29T01:48:35.148Z,30.45
2023-01-29T01:51:25.191Z,32.35
2023-01-29T01:54:16.676Z,28.52
2023-01-29T01:57:15.763Z,34.78
2023-01-29T02:00:11.062Z,30.70
2023-01-29T02:03:19.929Z,26.48
2023-01-29T02:06:28.202Z,31.48
2023-01-29T02:09:36.911Z,28.60
2023-01-29T02:12:24.984Z,30.83
2023-01-29T02:15:12.663Z,32.38
2023-01-29T02:17:59.597Z,30.88
2023-01-29T02:20:52.006Z,32.38
2023-01-29T02:24:06.888Z,28.35
2023-01-29T02:27:10.279Z,27.55
2023-01-29T02:30:04.315Z,31.55
2023-01-29T02:32:58.539Z,34.38
2023-01-29T02:35:54.057Z,33.00
2023-01-29T02:38:46.709Z,33.35
2023-01-29T02:41:38.809Z,30.92
2023-01-29T02:44:34.973Z,32.50
2023-01-29T02:47:28.037Z,31.70
2023-01-29T02:50:21.001Z,35.47
2023-01-29T02:53:14.792Z,32.65
2023-01-29T02:56:08.622Z,33.83
2023-01-29T02:59:01.794Z,33.70
2023-01-29T03:01:52.846Z,34.47
2023-01-29T03:04:46.461Z,35.00
2023-01-29T03:07:43.990Z,31.85
2023-01-29T03:10:40.411Z,33.05
2023-01-29T03:13:35.240Z,36.03
2023-01-29T03:16:27.502Z,35.67
2023-01-29T03:19:17.699Z,34.35
2023-01-29T03:22:08.540Z,34.25
2023-01-29T03:25:16.703Z,33.67
2023-01-29T03:28:27.101Z,32.58
2023-01-29T03:31:34.836Z,35.92
2023-01-29T03:34:28.485Z,31.27
2023-01-29T03:37:21.764Z,35.40
2023-01-29T03:40:10.049Z,35.67
2023-01-29T03:43:06.708Z,34.03
2023-01-29T03:46:01.562Z,31.38
2023-01-29T03:48:56.381Z,39.05
2023-01-29T03:51:54.459Z,32.97
2023-01-29T03:54:52.621Z,33.92
2023-01-29T03:57:45.462Z,35.35
2023-01-29T04:00:41.115Z,35.75
2023-01-29T04:03:33.718Z,34.88
2023-01-29T04:06:25.518Z,33.13
2023-01-29T04:12:14.552Z,34.13
2023-01-29T04:15:06.694Z,32.22
2023-01-29T04:17:54.002Z,32.85
2023-01-29T04:20:48.549Z,33.90
2023-01-29T04:23:35.213Z,33.55
2023-01-29T04:26:50.703Z,38.78
2023-01-29T04:29:51.815Z,34.08
2023-01-29T04:32:50.999Z,35.35
2023-01-29T04:35:50.110Z,35.33
2023-01-29T04:38:48.480Z,37.28
2023-01-29T04:41:43.839Z,33.03
2023-01-29T04:44:40.176Z,34.40
2023-01-29T04:47:36.188Z,31.15
2023-01-29T04:50:29.832Z,36.67
2023-01-29T04:53:24.732Z,34.85
2023-01-29T04:56:19.263Z,35.35
2023-01-29T04:59:10.310Z,30.77
2023-01-29T05:01:57.066Z,32.45
2023-01-29T05:04:46.970Z,32.08
2023-01-29T05:07:36.951Z,32.72
2023-01-29T05:10:25.260Z,34.33
2023-01-29T05:13:15.743Z,32.45
2023-01-29T05:16:07.551Z,31.80
2023-01-29T05:18:54.927Z,34.70
2023-01-29T05:21:45.410Z,33.40
2023-01-29T05:24:31.650Z,34.20
2023-01-29T05:27:39.577Z,35.72
2023-01-29T05:30:26.128Z,33.85
2023-01-29T05:33:15.265Z,35.45
2023-01-29T05:36:01.442Z,39.45
2023-01-29T05:38:49.829Z,33.70
2023-01-29T05:41:36.455Z,33.15
2023-01-29T05:44:22.938Z,37.17
2023-01-29T05:47:09.432Z,36.00
2023-01-29T05:49:56.102Z,31.60
2023-01-29T05:52:42.956Z,31.40
2023-01-29T05:55:30.554Z,34.13
2023-01-29T05:58:19.592Z,33.22
2023-01-29T06:01:11.524Z,31.02
2023-01-29T06:03:58.128Z,32.38
2023-01-29T06:06:44.724Z,32.28
2023-01-29T06:09:31.184Z,29.25
2023-01-29T06:12:19.174Z,29.85
2023-01-29T06:15:06.734Z,30.35
2023-01-29T06:17:54.827Z,29.92
2023-01-29T06:20:41.703Z,32.38
2023-01-29T06:23:28.379Z,30.88
2023-01-29T06:26:16.666Z,34.10
2023-01-29T06:29:04.479Z,28.95
2023-01-29T06:31:51.058Z,29.95
2023-01-29T06:34:37.576Z,32.85
2023-01-29T06:37:24.117Z,33.20
2023-01-29T06:40:12.111Z,27.77
2023-01-29T06:42:58.393Z,29.95
2023-01-29T06:45:50.084Z,31.77
2023-01-29T06:48:36.910Z,29.25
2023-01-29T06:51:23.350Z,26.90
2023-01-29T06:54:10.437Z,29.83
2023-01-29T06:56:57.010Z,31.20
2023-01-29T06:59:43.732Z,32.03
2023-01-29T07:02:31.635Z,29.90
2023-01-29T07:05:18.078Z,28.30
2023-01-29T07:08:05.381Z,27.42
2023-01-29T07:10:52.335Z,27.08
2023-01-29T07:13:38.767Z,27.60
2023-01-29T07:16:26.260Z,26.77
2023-01-29T07:19:14.699Z,28.60
2023-01-29T07:22:02.446Z,27.17
2023-01-29T07:24:48.890Z,27.48
2023-01-29T07:27:35.649Z,31.55
2023-01-29T07:30:22.549Z,27.02
2023-01-29T07:33:10.142Z,26.83
2023-01-29T07:35:58.161Z,25.33
2023-01-29T07:38:44.990Z,26.90
2023-01-29T07:41:31.348Z,25.95
2023-01-29T07:44:19.407Z,27.05
2023-01-29T07:47:06.576Z,31.73
2023-01-29T07:49:53.057Z,28.15
2023-01-29T07:52:40.948Z,28.30
2023-01-29T07:55:28.063Z,27.40
2023-01-29T07:58:14.674Z,28.88
2023-01-29T08:01:01.272Z,25.55
2023-01-29T08:03:50.047Z,31.55
2023-01-29T08:06:37.264Z,27.77
2023-01-29T08:09:25.193Z,30.23
2023-01-29T08:12:11.700Z,24.75
2023-01-29T08:14:58.348Z,28.90
2023-01-29T08:17:57.230Z,28.02
2023-01-29T08:20:44.534Z,31.23
2023-01-29T08:23:31.665Z,30.20
2023-01-29T08:26:20.029Z,26.42
2023-01-29T08:31:55.419Z,27.88
2023-01-29T08:34:42.181Z,28.10
2023-01-29T08:37:28.939Z,30.02
2023-01-29T08:40:16.057Z,26.27
2023-01-29T08:43:08.735Z,28.48
2023-01-29T08:45:55.883Z,27.10
2023-01-29T08:48:42.367Z,25.23
2023-01-29T08:51:29.061Z,27.63
2023-01-29T08:54:15.833Z,25.92
2023-01-29T08:57:02.487Z,24.42
2023-01-29T08:59:50.619Z,28.27
2023-01-29T09:02:37.295Z,25.85
2023-01-29T09:05:23.880Z,27.50
2023-01-29T09:08:11.116Z,25.48
2023-01-29T09:10:59.807Z,28.83
2023-01-29T09:13:46.362Z,27.00
2023-01-29T09:16:34.263Z,31.08
2023-01-29T09:19:20.785Z,25.83
2023-01-29T09:22:07.343Z,28.45
2023-01-29T09:24:53.905Z,31.80
2023-01-29T09:27:40.602Z,26.08
2023-01-29T09:30:27.396Z,24.92
2023-01-29T09:33:15.222Z,26.27
2023-01-29T09:36:03.587Z,27.58
2023-01-29T09:38:49.855Z,26.10
2023-01-29T09:41:51.546Z,27.95
2023-01-29T09:44:55.739Z,30.20
2023-01-29T09:47:44.248Z,27.70
2023-01-29T09:50:37.431Z,25.08
2023-01-29T09:53:32.596Z,25.60
2023-01-29T09:56:22.227Z,24.92
2023-01-29T09:59:13.812Z,25.40
2023-01-29T10:02:11.140Z,29.08
2023-01-29T10:05:24.173Z,27.38
2023-01-29T10:08:35.599Z,24.65
2023-01-29T10:11:33.159Z,25.35
2023-01-29T10:14:31.880Z,26.77
2023-01-29T10:17:34.048Z,24.88
2023-01-29T10:20:39.259Z,25.52
2023-01-29T10:23:32.806Z,25.63
2023-01-29T10:26:25.237Z,26.58
2023-01-29T10:29:19.145Z,26.05
2023-01-29T10:32:06.272Z,25.88
2023-01-29T10:34:57.437Z,28.48
2023-01-29T10:37:44.454Z,27.75
2023-01-29T10:40:43.113Z,30.70
2023-01-29T10:43:38.175Z,25.50
2023-01-29T10:46:37.844Z,30.38
2023-01-29T10:49:42.990Z,30.00
2023-01-29T10:52:42.604Z,30.27
2023-01-29T10:55:42.000Z,32.67
2023-01-29T10:58:35.134Z,33.77
2023-01-29T11:01:21.641Z,31.00
2023-01-29T11:04:12.791Z,31.33
2023-01-29T11:07:00.435Z,33.50
2023-01-29T11:09:53.138Z,33.08
2023-01-29T11:12:43.774Z,38.83
2023-01-29T11:18:19.962Z,32.87
2023-01-29T11:21:07.330Z,30.65
2023-01-29T11:24:08.658Z,30.67
2023-01-29T11:26:58.253Z,31.58
2023-01-29T11:29:47.135Z,37.65
2023-01-29T11:32:35.991Z,41.70
2023-01-29T11:35:25.437Z,32.33
2023-01-29T11:38:22.610Z,36.10
2023-01-29T11:41:18.121Z,31.35
2023-01-29T11:44:19.179Z,36.90
2023-01-29T11:47:18.246Z,35.65
2023-01-29T11:50:06.059Z,32.47
2023-01-29T11:52:52.886Z,32.22
2023-01-29T11:55:50.230Z,30.90
2023-01-29T11:58:37.498Z,34.22
2023-01-29T12:01:34.342Z,33.25
2023-01-29T12:04:25.604Z,31.23
2023-01-29T12:07:15.413Z,34.22
2023-01-29T12:10:01.941Z,42.60
2023-01-29T12:12:49.535Z,33.15
2023-01-29T12:15:36.862Z,33.08
2023-01-29T12:18:30.856Z,34.70
2023-01-29T12:21:27.976Z,33.05
2023-01-29T12:24:30.634Z,32.97
2023-01-29T12:27:25.804Z,32.25
2023-01-29T12:30:18.775Z,35.78
2023-01-29T12:33:12.697Z,36.55
2023-01-29T12:36:10.768Z,33.38
2023-01-29T12:38:59.653Z,32.08
2023-01-29T12:41:52.339Z,39.95
2023-01-29T12:44:44.978Z,33.47
2023-01-29T12:47:35.353Z,34.28
2023-01-29T12:50:25.421Z,34.28
2023-01-29T12:53:26.453Z,38.58
2023-01-29T12:56:20.308Z,34.03
2023-01-29T12:59:15.293Z,34.20
2023-01-29T13:02:15.998Z,36.75
2023-01-29T13:05:11.293Z,38.17
2023-01-29T13:08:04.030Z,39.42
2023-01-29T13:10:53.935Z,37.92
2023-01-29T13:13:54.092Z,35.42
2023-01-29T13:16:44.757Z,38.33
2023-01-29T13:19:37.313Z,37.15
2023-01-29T13:22:27.119Z,34.42
2023-01-29T13:25:17.072Z,38.37
2023-01-29T13:28:03.836Z,35.17
2023-01-29T13:31:14.406Z,38.95
2023-01-29T13:34:08.481Z,36.33
2023-01-29T13:36:56.890Z,32.25
2023-01-29T13:39:49.865Z,31.02
2023-01-29T13:42:43.595Z,31.23
2023-01-29T13:45:35.423Z,29.73
2023-01-29T13:48:28.287Z,29.20
2023-01-29T13:51:20.138Z,33.38
2023-01-29T13:54:16.955Z,35.28
2023-01-29T13:57:03.608Z,34.20
2023-01-29T13:59:53.159Z,33.83
2023-01-29T14:02:39.862Z,33.17
2023-01-29T14:05:41.806Z,31.02
2023-01-29T14:08:40.438Z,29.67
2023-01-29T14:11:36.729Z,31.52
2023-01-29T14:14:52.174Z,33.90
2023-01-29T14:17:40.164Z,29.30
2023-01-29T14:20:45.220Z,33.13
2023-01-29T14:23:41.964Z,36.25
2023-01-29T14:26:32.085Z,33.55
2023-01-29T14:29:33.856Z,31.08
2023-01-29T14:32:24.894Z,29.58
2023-01-29T14:35:19.408Z,32.95
2023-01-29T14:38:07.637Z,31.25
2023-01-29T14:41:05.825Z,33.40
2023-01-29T14:43:52.340Z,35.85
2023-01-29T14:46:45.697Z,34.58
2023-01-29T14:49:51.999Z,32.75
2023-01-29T14:52:42.791Z,31.85
2023-01-29T14:55:36.712Z,30.95
2023-01-29T14:58:34.058Z,31.48
2023-01-29T15:01:24.505Z,32.53
2023-01-29T15:04:19.412Z,29.33
2023-01-29T15:07:16.107Z,28.55
2023-01-29T15:10:21.836Z,28.00
2023-01-29T15:13:17.246Z,31.80
2023-01-29T15:16:11.860Z,29.73
2023-01-29T15:19:12.617Z,31.05
2023-01-29T15:22:07.175Z,30.15
2023-01-29T15:25:07.295Z,27.85
2023-01-29T15:27:55.714Z,31.92
2023-01-29T15:30:43.594Z,28.35
2023-01-29T15:33:33.111Z,33.08
2023-01-29T15:36:22.445Z,31.15
2023-01-29T15:39:27.764Z,34.53
2023-01-29T15:42:21.716Z,32.67
2023-01-29T15:45:22.635Z,28.27
2023-01-29T15:51:05.015Z,30.35
2023-01-29T15:53:54.791Z,28.50
2023-01-29T15:56:44.079Z,28.25
2023-01-29T15:59:58.837Z,31.25
2023-01-29T16:02:45.377Z,29.90
2023-01-29T16:05:33.811Z,29.95
2023-01-29T16:08:22.837Z,32.95
2023-01-29T16:11:10.433Z,32.20
2023-01-29T16:13:57.990Z,40.55
2023-01-29T16:16:45.979Z,39.67
2023-01-29T16:19:32.643Z,30.33
2023-01-29T16:22:19.081Z,30.60
2023-01-29T16:25:12.321Z,33.42
2023-01-29T16:27:58.892Z,34.92
2023-01-29T16:30:45.819Z,32.60
2023-01-29T16:33:35.489Z,35.30
2023-01-29T16:36:24.506Z,36.23
2023-01-29T16:39:20.208Z,38.38
2023-01-29T16:42:38.471Z,35.60
2023-01-29T16:45:29.180Z,40.13
2023-01-29T16:48:28.461Z,37.92
2023-01-29T16:51:22.186Z,39.70
2023-01-29T16:54:16.063Z,36.53
2023-01-29T16:57:03.319Z,37.53
2023-01-29T16:59:55.033Z,43.53
2023-01-29T17:02:41.367Z,38.97
2023-01-29T17:05:31.503Z,38.85
2023-01-29T17:08:23.611Z,36.13
2023-01-29T17:11:13.580Z,38.00
2023-01-29T17:14:00.946Z,36.80
2023-01-29T17:16:55.441Z,37.47
2023-01-29T17:19:42.585Z,40.35
2023-01-29T17:22:29.320Z,37.05
2023-01-29T17:25:17.028Z,38.00
2023-01-29T17:28:04.658Z,39.88
2023-01-29T17:31:05.157Z,39.55
2023-01-29T17:33:53.391Z,36.33
2023-01-29T17:36:40.296Z,39.78
2023-01-29T17:39:26.643Z,37.92
2023-01-29T17:42:15.147Z,40.40
2023-01-29T17:45:01.607Z,41.70
2023-01-29T17:47:48.040Z,37.97
2023-01-29T17:50:38.272Z,37.10
2023-01-29T17:53:30.489Z,39.72
2023-01-29T17:56:27.454Z,43.30
2023-01-29T17:59:17.088Z,37.25
2023-01-29T18:02:03.559Z,42.03
2023-01-29T18:04:50.977Z,44.90
2023-01-29T18:07:39.585Z,42.72
2023-01-29T18:10:26.608Z,41.25
2023-01-29T18:13:12.863Z,40.30
2023-01-29T18:15:59.560Z,36.60
2023-01-29T18:18:46.217Z,44.38
2023-01-29T18:21:32.608Z,37.65
2023-01-29T18:24:21.119Z,39.30
2023-01-29T18:27:07.445Z,37.03
2023-01-29T18:29:54.015Z,38.55
2023-01-29T18:32:40.497Z,38.58
2023-01-29T18:35:28.758Z,38.58
2023-01-29T18:38:15.225Z,38.13
2023-01-29T18:41:10.422Z,45.63
2023-01-29T18:43:56.462Z,45.92
2023-01-29T18:46:43.066Z,43.13
2023-01-29T18:49:29.616Z,39.03
2023-01-29T18:52:17.269Z,39.90
2023-01-29T18:55:03.710Z,34.53
2023-01-29T18:58:25.134Z,40.85
2023-01-29T19:01:01.811Z,36.75
2023-01-29T19:03:48.379Z,41.30
2023-01-29T19:06:37.075Z,39.30
2023-01-29T19:09:24.277Z,40.22
2023-01-29T19:12:10.986Z,41.08
2023-01-29T19:14:58.758Z,37.65
2023-01-29T19:17:45.257Z,38.75
2023-01-29T19:20:32.028Z,36.47
2023-01-29T19:23:18.674Z,37.70
2023-01-29T19:26:05.268Z,38.47
2023-01-29T19:28:51.680Z,37.70
2023-01-29T19:31:39.515Z,41.63
2023-01-29T19:34:26.809Z,40.88
2023-01-29T19:37:14.429Z,42.10
2023-01-29T19:40:01.033Z,40.65
2023-01-29T19:42:47.712Z,43.22
2023-01-29T19:45:49.234Z,44.22
2023-01-29T19:48:38.360Z,41.80
2023-01-29T19:51:24.869Z,39.10
2023-01-29T19:54:11.623Z,40.95
2023-01-29T19:56:58.191Z,41.97
2023-01-29T19:59:45.941Z,45.15
2023-01-29T20:02:33.291Z,49.33
2023-01-29T20:05:21.578Z,42.13
2023-01-29T20:08:08.337Z,44.30
2023-01-29T20:10:54.790Z,44.75
2023-01-29T20:13:41.398Z,45.28
2023-01-29T20:16:28.091Z,39.78
2023-01-29T20:19:15.258Z,48.75
2023-01-29T20:22:03.203Z,49.10
2023-01-29T20:24:49.679Z,38.70
2023-01-29T20:27:36.484Z,43.92
2023-01-29T20:30:22.944Z,43.97
2023-01-29T20:33:10.258Z,45.95
2023-01-29T20:35:57.549Z,47.20
2023-01-29T20:38:45.980Z,42.28
2023-01-29T20:41:32.730Z,42.92
2023-01-29T20:44:20.267Z,42.97
2023-01-29T20:47:06.796Z,48.72
2023-01-29T20:49:53.328Z,43.25
2023-01-29T20:52:41.227Z,49.30
2023-01-29T20:55:29.733Z,48.47
2023-01-29T20:58:16.324Z,43.70
2023-01-29T21:01:08.254Z,50.22
2023-01-29T21:03:55.095Z,46.00
2023-01-29T21:06:41.447Z,47.05
2023-01-29T21:09:28.036Z,47.35
2023-01-29T21:12:16.361Z,46.38
2023-01-29T21:15:04.085Z,54.13
2023-01-29T21:17:52.368Z,44.83
2023-01-29T21:20:38.729Z,45.60
2023-01-29T21:23:25.309Z,59.05
2023-01-29T21:26:11.871Z,46.53
2023-01-29T21:28:59.780Z,46.75
2023-01-29T21:31:46.699Z,52.65
2023-01-29T21:34:33.014Z,51.70
2023-01-29T21:37:19.495Z,45.88
2023-01-29T21:40:07.768Z,49.53
2023-01-29T21:43:12.704Z,48.22
2023-01-29T21:46:03.827Z,51.72
2023-01-29T21:48:50.203Z,49.28
2023-01-29T21:51:36.975Z,45.83
2023-01-29T21:54:23.474Z,52.25
2023-01-29T21:57:14.879Z,46.38
2023-01-29T22:00:01.614Z,53.05
2023-01-29T22:02:52.919Z,52.55
2023-01-29T22:05:39.492Z,50.85
2023-01-29T22:08:26.149Z,52.92
2023-01-29T22:11:13.137Z,49.38
2023-01-29T22:14:00.042Z,50.95
2023-01-29T22:16:46.765Z,45.60
2023-01-29T22:19:34.455Z,54.15
2023-01-29T22:22:21.015Z,58.92
2023-01-29T22:25:08.494Z,53.13
2023-01-29T22:27:54.966Z,52.15
2023-01-29T22:30:41.745Z,53.95
2023-01-29T22:33:28.381Z,56.30
2023-01-29T22:36:16.219Z,56.88
2023-01-29T22:39:02.975Z,54.90
2023-01-29T22:41:49.327Z,53.88
2023-01-29T22:44:35.878Z,60.20
2023-01-29T22:47:22.359Z,63.28
2023-01-29T22:50:09.975Z,58.90
2023-01-29T22:52:57.535Z,51.97
2023-01-29T22:55:43.907Z,54.20
2023-01-29T22:58:30.590Z,53.58
2023-01-29T23:04:47.613Z,52.20
2023-01-29T23:07:34.375Z,56.90
2023-01-29T23:10:22.182Z,51.10
2023-01-29T23:13:08.512Z,50.33
2023-01-29T23:15:59.350Z,57.10
2023-01-29T23:18:49.769Z,53.63
2023-01-29T23:21:36.196Z,52.83
2023-01-29T23:24:22.735Z,50.53
2023-01-29T23:27:16.524Z,55.38
2023-01-29T23:30:03.220Z,50.75
2023-01-29T23:32:49.849Z,49.70
2023-01-29T23:35:36.293Z,48.60
2023-01-29T23:38:22.605Z,50.08
2023-01-29T23:41:09.072Z,52.72
2023-01-29T23:43:56.861Z,48.75
2023-01-29T23:46:43.631Z,48.60
2023-01-29T23:49:30.380Z,42.50
2023-01-29T23:52:16.594Z,45.53
2023-01-29T23:55:02.996Z,44.85
2023-01-29T23:57:49.574Z,46.13
